Weather observations for the past three days for
De Queen, J Lynn Helms Sevier County Airport
Imperial (Metric)
Date Time (cdt) Wind (mph) Vis. (mi.) Weather Sky Cond. Temperature (ºF) Relative Humidity Wind Chill (°F) Heat Index (°F) Pressure Precipitation (in)
Air Dwpt 6 hour altimeter (in) sea level (mb) 1 hr 3 hr 6 hr
Max. Min.
02 11:53 Vrbl 6 10.00 Fair CLR 71.1 42.1 35% 30.13 1020.1
02 10:53 NE 3 10.00 Fair CLR 70 42.1 37% 30.14 1020.1
02 09:53 Calm 10.00 Fair CLR 64.9 48 54% 30.13 1020.0
02 08:53 Calm 10.00 Fair CLR 59 50 72% 30.13 1020.1
02 07:53 Calm 10.00 Fair CLR 53.1 50 89% 30.11 1019.3
02 06:53 Calm 7.00 Fair CLR 48 48 55.9 46.9 100% 30.08 1018.4
02 05:53 Calm 0.50 Fog VV002 48.9 48 97% 30.07 1017.9
02 04:53 Calm 5.00 Fog/Mist CLR 51.1 50 96% 30.06 1017.5
02 03:53 Calm 7.00 Fair CLR 51.1 51.1 100% 30.04 1017.1
02 02:53 Calm 4.00 Fog/Mist CLR 53.1 52 96% 30.04 1016.8
02 01:53 Calm 7.00 Fair CLR 54 54 100% 30.05 1017.1
02 00:53 Calm 9.00 Fair CLR 55.9 55 64.9 55 97% 30.04 1017.0
01 23:53 Calm 10.00 Fair CLR 57 55.9 96% 30.04 1016.8
01 22:53 Calm 10.00 Partly Cloudy SCT075 57.9 57 97% 30.04 1016.9
01 21:53 Calm 10.00 Fair CLR 59 57.9 96% 30.04 1016.9
01 20:53 Calm 10.00 Overcast SCT070 OVC085 62.1 55.9 80% 30.01 1016.0
01 18:53 S 3 10.00 Overcast OVC080 64.9 51.1 70 64.9 61% 29.97 1014.7
01 17:53 SE 5 10.00 A Few Clouds FEW070 66 50 56% 29.93 1013.3
01 16:53 E 6 10.00 Fair CLR 68 48.9 51% 29.92 1012.9
01 15:53 E 9 10.00 Fair CLR 68 48 49% 29.93 1013.2
01 14:53 Vrbl 7 10.00 Fair CLR 70 50 49% 29.95 1013.9
01 13:53 E 12 G 20 10.00 Fair CLR 68 51.1 55% 30 1015.6
01 12:53 NE 9 10.00 Fair CLR 64.9 50 64.9 53.1 59% 30.03 1016.6
01 11:53 E 7 10.00 Fair CLR 63 50 63% 30.05 1017.4
01 10:53 E 7 10.00 Fair CLR 63 50 63% 30.05 1017.2
01 09:53 NE 3 10.00 Fair CLR 60.1 51.1 72% 30.04 1017.1
01 08:53 Calm 10.00 Fair CLR 55.9 51.1 84% 30.03 1016.7
01 07:53 Calm 10.00 Fair CLR 55 50 83% 30.02 1016.2
01 06:53 E 5 10.00 A Few Clouds FEW002 53.1 50 57.9 52 89% 30 1015.7
01 05:53 Calm 10.00 Fair CLR 53.1 51.1 93% 30 1015.7
01 04:53 Calm 10.00 Overcast OVC110 55 52 90% 29.98 1015.0
01 03:53 Calm 10.00 Overcast OVC110 55.9 53.1 90% 29.98 1014.9
01 02:53 Calm 10.00 Mostly Cloudy BKN110 57 53.1 87% 29.99 1015.1
01 01:53 Calm 10.00 Overcast OVC095 57.9 54 87% 30.01 1015.8
01 00:53 Calm 10.00 Overcast OVC095 57.9 55 64 57.9 90% 30.01 1015.8
30 23:53 Calm 10.00 Overcast OVC085 59 54 83% 30.01 1015.7
30 22:53 Calm 10.00 Overcast OVC090 59 55.9 90% 30.02 1016.2
30 21:53 Calm 10.00 Light Rain OVC085 60.1 54 80% 30 1015.6
30 20:53 NE 5 10.00 Overcast OVC085 61 53.1 75% 29.97 1014.4
30 19:53 Calm 10.00 Overcast OVC085 62.1 54 75% 29.95 1014.0
30 18:53 E 3 10.00 Overcast OVC090 64 52 66.9 64 65% 29.94 1013.6
30 17:53 NE 6 10.00 A Few Clouds FEW090 64.9 52 63% 29.94 1013.5
30 16:53 E 8 10.00 Fair CLR 64.9 52 63% 29.93 1013.3
30 15:53 E 7 10.00 Fair CLR 64 52 65% 29.94 1013.4
30 14:53 E 9 10.00 Fair CLR 64.9 52 63% 29.95 1013.9
30 13:53 E 7 10.00 Fair CLR 66 51.1 59% 29.99 1015.2
30 12:53 E 10 10.00 Fair CLR 66 52 66 53.1 61% 30 1015.4
30 11:53 E 13 G 17 10.00 Fair CLR 63 50 63% 30.01 1015.8
30 10:53 E 13 G 22 10.00 Fair CLR 61 48.9 65% 30.01 1015.9
30 09:53 E 15 G 24 10.00 Fair CLR 61 48 63% 29.99 1015.1
30 08:53 E 10 10.00 Fair CLR 60.1 50 70% 30 1015.6
30 07:53 E 7 10.00 Fair CLR 57 50 78% 29.98 1014.9
30 06:53 NE 5 10.00 Fair CLR 53.1 50 62.1 53.1 89% 29.96 1014.3
30 05:53 Calm 10.00 Fair CLR 54 52 93% 29.98 1014.8
30 04:53 E 3 10.00 Fair CLR 55 54 96% 29.97 1014.6
30 03:53 Calm 7.00 Fair CLR 57 55.9 96% 29.96 1014.2
30 02:53 Calm 7.00 Mostly Cloudy BKN046 59 59 100% 29.96 1014.2
30 01:53 Calm 10.00 A Few Clouds FEW044 60.1 60.1 100% 29.96 1014.3
30 00:53 E 3 10.00 Overcast OVC065 62.1 61 64.9 62.1 96% 29.98 1014.7
29 23:53 Calm 10.00 Overcast OVC060 63 62.1 97% 29.97 1014.6
29 22:53 Calm 10.00 Overcast OVC060 63 62.1 97% 29.97 1014.4
29 21:53 Calm 10.00 Overcast OVC055 63 62.1 97% 29.95 1013.6
29 20:53 Calm 10.00 Overcast OVC050 64 62.1 93% 29.92 1012.8
29 19:53 Calm 10.00 Mostly Cloudy BKN055 BKN085 64 60.1 87% 29.9 1012.1
29 18:53 NE 7 10.00 Fair CLR 64.9 62.1 71.1 64.9 90% 29.88 1011.5 0.03
29 17:53 E 6 10.00 Light Rain SCT035 OVC046 64.9 61 87% 29.9 1012.1 0.02
29 16:53 E 3 10.00 Overcast OVC050 68 60.1 76% 29.89 1011.9
29 15:53 E 5 10.00 Overcast OVC050 69.1 59 70% 29.9 1012.3 0.01
29 14:53 NE 7 10.00 A Few Clouds FEW085 71.1 57.9 63% 29.9 1012.1
29 13:53 Calm 10.00 Thunderstorm in Vicinity BKN060 68 61 78% 29.95 1013.7 0.01
29 12:53 E 5 10.00 Overcast BKN055 OVC075 69.1 59 70 61 70% 29.96 1014.1
Date Time (cdt) Wind (mph) Vis. (mi.) Weather Sky Cond. Air Dwpt Max. Min. Relative Humidity Wind Chill (°F) Heat Index (°F) altimeter (in) sea level (mb) 1 hr 3 hr 6 hr
6 hour
Temperature (ºF) Pressure Precipitation (in)